sensor_id;sensor_type;location;lat;lon;timestamp;temperature;humidity
3778;DHT22;1904;50.076;8.660;2022-12-18T00:05:37;-7.60;1.00
3778;DHT22;1904;50.076;8.660;2022-12-18T00:08:37;-7.70;1.00
3778;DHT22;1904;50.076;8.660;2022-12-18T00:18:07;-7.80;1.00
3778;DHT22;1904;50.076;8.660;2022-12-18T00:24:20;-7.90;1.00
3778;DHT22;1904;50.076;8.660;2022-12-18T00:30:37;-8.00;1.00
3778;DHT22;1904;50.076;8.660;2022-12-18T00:33:07;-8.00;1.00
3778;DHT22;1904;50.076;8.660;2022-12-18T00:42:08;-8.00;1.00
3778;DHT22;1904;50.076;8.660;2022-12-18T00:48:25;-8.00;1.00
3778;DHT22;1904;50.076;8.660;2022-12-18T00:50:56;-8.00;1.00
3778;DHT22;1904;50.076;8.660;2022-12-18T00:53:22;-8.00;1.00
3778;DHT22;1904;50.076;8.660;2022-12-18T00:55:47;-8.10;1.00
3778;DHT22;1904;50.076;8.660;2022-12-18T00:58:25;-8.00;1.00
3778;DHT22;1904;50.076;8.660;2022-12-18T01:00:51;-7.90;1.00
3778;DHT22;1904;50.076;8.660;2022-12-18T01:10:14;-7.70;1.00
3778;DHT22;1904;50.076;8.660;2022-12-18T01:16:08;-7.70;1.00
3778;DHT22;1904;50.076;8.660;2022-12-18T01:18:38;-7.70;1.00
3778;DHT22;1904;50.076;8.660;2022-12-18T01:21:25;-7.60;1.00
3778;DHT22;1904;50.076;8.660;2022-12-18T01:27:26;-7.70;1.00
3778;DHT22;1904;50.076;8.660;2022-12-18T01:29:52;-7.70;1.00
3778;DHT22;1904;50.076;8.660;2022-12-18T01:32:17;-7.70;1.00
3778;DHT22;1904;50.076;8.660;2022-12-18T01:34:56;-7.70;1.00
3778;DHT22;1904;50.076;8.660;2022-12-18T01:40:43;-7.70;1.00
3778;DHT22;1904;50.076;8.660;2022-12-18T01:49:39;-7.70;1.00
3778;DHT22;1904;50.076;8.660;2022-12-18T01:52:15;-7.80;1.00
3778;DHT22;1904;50.076;8.660;2022-12-18T01:54:50;-7.80;1.00
3778;DHT22;1904;50.076;8.660;2022-12-18T01:57:27;-7.80;1.00
3778;DHT22;1904;50.076;8.660;2022-12-18T02:00:09;-7.80;1.00
3778;DHT22;1904;50.076;8.660;2022-12-18T02:02:56;-7.80;1.00
3778;DHT22;1904;50.076;8.660;2022-12-18T02:11:56;-7.80;1.00
3778;DHT22;1904;50.076;8.660;2022-12-18T02:28:58;-7.90;1.00
3778;DHT22;1904;50.076;8.660;2022-12-18T02:31:35;-7.90;1.00
3778;DHT22;1904;50.076;8.660;2022-12-18T02:41:08;-8.00;1.00
3778;DHT22;1904;50.076;8.660;2022-12-18T02:44:09;-8.10;1.00
3778;DHT22;1904;50.076;8.660;2022-12-18T02:59:15;-8.20;1.00
3778;DHT22;1904;50.076;8.660;2022-12-18T03:12:12;-8.40;1.00
3778;DHT22;1904;50.076;8.660;2022-12-18T03:21:05;-8.50;1.00
3778;DHT22;1904;50.076;8.660;2022-12-18T03:23:40;-8.50;1.00
3778;DHT22;1904;50.076;8.660;2022-12-18T03:26:10;-8.50;1.00
3778;DHT22;1904;50.076;8.660;2022-12-18T03:28:42;-8.60;1.00
3778;DHT22;1904;50.076;8.660;2022-12-18T03:31:22;-8.60;1.00
3778;DHT22;1904;50.076;8.660;2022-12-18T03:34:26;-8.60;1.00
3778;DHT22;1904;50.076;8.660;2022-12-18T03:36:54;-8.60;1.00
3778;DHT22;1904;50.076;8.660;2022-12-18T03:43:10;-8.60;1.00
3778;DHT22;1904;50.076;8.660;2022-12-18T03:49:02;-8.70;1.00
3778;DHT22;1904;50.076;8.660;2022-12-18T03:52:13;-8.70;1.00
3778;DHT22;1904;50.076;8.660;2022-12-18T03:54:51;-8.70;1.00
3778;DHT22;1904;50.076;8.660;2022-12-18T03:57:28;-8.70;1.00
3778;DHT22;1904;50.076;8.660;2022-12-18T04:03:18;-8.70;1.00
3778;DHT22;1904;50.076;8.660;2022-12-18T04:05:51;-8.70;1.00
3778;DHT22;1904;50.076;8.660;2022-12-18T04:08:26;-8.70;1.00
3778;DHT22;1904;50.076;8.660;2022-12-18T04:10:56;-8.80;1.00
3778;DHT22;1904;50.076;8.660;2022-12-18T04:13:28;-8.80;1.00
3778;DHT22;1904;50.076;8.660;2022-12-18T04:15:54;-8.80;1.00
3778;DHT22;1904;50.076;8.660;2022-12-18T04:18:20;-8.80;1.00
3778;DHT22;1904;50.076;8.660;2022-12-18T04:20:56;-8.70;1.00
3778;DHT22;1904;50.076;8.660;2022-12-18T04:23:22;-8.70;1.00
3778;DHT22;1904;50.076;8.660;2022-12-18T04:25:50;-8.70;1.00
3778;DHT22;1904;50.076;8.660;2022-12-18T04:28:16;-8.80;1.00
3778;DHT22;1904;50.076;8.660;2022-12-18T04:30:44;-8.80;1.00
3778;DHT22;1904;50.076;8.660;2022-12-18T04:33:20;-8.80;1.00
3778;DHT22;1904;50.076;8.660;2022-12-18T04:36:02;-8.80;1.00
3778;DHT22;1904;50.076;8.660;2022-12-18T04:38:28;-8.80;1.00
3778;DHT22;1904;50.076;8.660;2022-12-18T04:40:54;-8.80;1.00
3778;DHT22;1904;50.076;8.660;2022-12-18T04:43:20;-8.80;1.00
3778;DHT22;1904;50.076;8.660;2022-12-18T04:45:50;-8.80;1.00
3778;DHT22;1904;50.076;8.660;2022-12-18T04:48:20;-8.80;1.00
3778;DHT22;1904;50.076;8.660;2022-12-18T04:50:46;-8.80;1.00
3778;DHT22;1904;50.076;8.660;2022-12-18T04:59:56;-8.90;1.00
3778;DHT22;1904;50.076;8.660;2022-12-18T05:02:32;-8.80;1.00
3778;DHT22;1904;50.076;8.660;2022-12-18T05:05:08;-8.80;1.00
3778;DHT22;1904;50.076;8.660;2022-12-18T05:07:34;-8.80;1.00
3778;DHT22;1904;50.076;8.660;2022-12-18T05:10:00;-8.80;1.00
3778;DHT22;1904;50.076;8.660;2022-12-18T05:18:53;-8.80;1.00
3778;DHT22;1904;50.076;8.660;2022-12-18T05:21:44;-8.80;1.00
3778;DHT22;1904;50.076;8.660;2022-12-18T05:27:31;-8.70;1.00
3778;DHT22;1904;50.076;8.660;2022-12-18T05:30:02;-8.70;1.00
3778;DHT22;1904;50.076;8.660;2022-12-18T05:32:44;-8.70;1.00
3778;DHT22;1904;50.076;8.660;2022-12-18T05:35:10;-8.70;1.00
3778;DHT22;1904;50.076;8.660;2022-12-18T05:37:36;-8.70;1.00
3778;DHT22;1904;50.076;8.660;2022-12-18T05:40:04;-8.70;1.00
3778;DHT22;1904;50.076;8.660;2022-12-18T05:42:30;-8.70;1.00
3778;DHT22;1904;50.076;8.660;2022-12-18T05:44:56;-8.60;1.00
3778;DHT22;1904;50.076;8.660;2022-12-18T05:47:22;-8.70;1.00
3778;DHT22;1904;50.076;8.660;2022-12-18T05:49:47;-8.70;1.00
3778;DHT22;1904;50.076;8.660;2022-12-18T05:52:44;-8.70;1.00
3778;DHT22;1904;50.076;8.660;2022-12-18T05:55:35;-8.70;1.00
3778;DHT22;1904;50.076;8.660;2022-12-18T05:58:03;-8.70;1.00
3778;DHT22;1904;50.076;8.660;2022-12-18T06:00:34;-8.70;1.00
3778;DHT22;1904;50.076;8.660;2022-12-18T06:06:27;-8.70;1.00
3778;DHT22;1904;50.076;8.660;2022-12-18T06:09:02;-8.70;1.00
3778;DHT22;1904;50.076;8.660;2022-12-18T06:14:55;-8.70;1.00
3778;DHT22;1904;50.076;8.660;2022-12-18T06:20:44;-8.70;1.00
3778;DHT22;1904;50.076;8.660;2022-12-18T06:23:10;-8.70;1.00
3778;DHT22;1904;50.076;8.660;2022-12-18T06:25:38;-8.70;1.00
3778;DHT22;1904;50.076;8.660;2022-12-18T06:28:08;-8.70;1.00
3778;DHT22;1904;50.076;8.660;2022-12-18T06:30:38;-8.60;1.00
3778;DHT22;1904;50.076;8.660;2022-12-18T06:33:15;-8.60;1.00
3778;DHT22;1904;50.076;8.660;2022-12-18T06:36:04;-8.60;1.00
3778;DHT22;1904;50.076;8.660;2022-12-18T06:38:33;-8.60;1.00
3778;DHT22;1904;50.076;8.660;2022-12-18T06:44:21;-8.60;1.00
3778;DHT22;1904;50.076;8.660;2022-12-18T06:50:08;-8.60;1.00
3778;DHT22;1904;50.076;8.660;2022-12-18T06:52:44;-8.70;1.00
3778;DHT22;1904;50.076;8.660;2022-12-18T06:55:14;-8.60;1.00
3778;DHT22;1904;50.076;8.660;2022-12-18T06:57:56;-8.60;1.00
3778;DHT22;1904;50.076;8.660;2022-12-18T07:00:32;-8.60;1.00
3778;DHT22;1904;50.076;8.660;2022-12-18T07:02:58;-8.60;1.00
3778;DHT22;1904;50.076;8.660;2022-12-18T07:05:26;-8.60;1.00
3778;DHT22;1904;50.076;8.660;2022-12-18T07:07:52;-8.60;1.00
3778;DHT22;1904;50.076;8.660;2022-12-18T07:10:26;-8.60;1.00
3778;DHT22;1904;50.076;8.660;2022-12-18T07:12:52;-8.60;1.00
3778;DHT22;1904;50.076;8.660;2022-12-18T07:18:39;-8.60;1.00
3778;DHT22;1904;50.076;8.660;2022-12-18T07:21:17;-8.60;1.00
3778;DHT22;1904;50.076;8.660;2022-12-18T07:23:44;-8.60;1.00
3778;DHT22;1904;50.076;8.660;2022-12-18T07:30:02;-8.50;1.00
3778;DHT22;1904;50.076;8.660;2022-12-18T07:32:32;-8.50;1.00
3778;DHT22;1904;50.076;8.660;2022-12-18T07:38:21;-8.50;1.00
3778;DHT22;1904;50.076;8.660;2022-12-18T07:40:46;-8.50;1.00
3778;DHT22;1904;50.076;8.660;2022-12-18T07:43:26;-8.50;1.00
3778;DHT22;1904;50.076;8.660;2022-12-18T07:45:52;-8.40;1.00
3778;DHT22;1904;50.076;8.660;2022-12-18T07:48:18;-8.40;1.00
3778;DHT22;1904;50.076;8.660;2022-12-18T07:50:43;-8.40;1.00
3778;DHT22;1904;50.076;8.660;2022-12-18T07:53:15;-8.30;1.00
3778;DHT22;1904;50.076;8.660;2022-12-18T08:02:32;-8.20;1.00
3778;DHT22;1904;50.076;8.660;2022-12-18T08:08:20;-8.10;1.00
3778;DHT22;1904;50.076;8.660;2022-12-18T08:14:32;-7.90;1.00
3778;DHT22;1904;50.076;8.660;2022-12-18T08:17:32;-7.80;1.00
3778;DHT22;1904;50.076;8.660;2022-12-18T08:23:21;-7.70;1.00
3778;DHT22;1904;50.076;8.660;2022-12-18T08:25:47;-7.60;1.00
3778;DHT22;1904;50.076;8.660;2022-12-18T08:28:13;-7.50;1.00
3778;DHT22;1904;50.076;8.660;2022-12-18T08:30:44;-7.50;1.00
3778;DHT22;1904;50.076;8.660;2022-12-18T08:33:10;-7.40;1.00
3778;DHT22;1904;50.076;8.660;2022-12-18T08:35:38;-7.30;1.00
3778;DHT22;1904;50.076;8.660;2022-12-18T08:41:32;-7.10;1.00
3778;DHT22;1904;50.076;8.660;2022-12-18T08:57:15;-6.40;1.00
3778;DHT22;1904;50.076;8.660;2022-12-18T09:00:14;-6.30;1.00
3778;DHT22;1904;50.076;8.660;2022-12-18T09:02:45;-6.10;1.00
3778;DHT22;1904;50.076;8.660;2022-12-18T09:05:15;-6.00;1.00
3778;DHT22;1904;50.076;8.660;2022-12-18T09:07:45;-5.90;1.00
3778;DHT22;1904;50.076;8.660;2022-12-18T09:10:15;-5.80;1.00
3778;DHT22;1904;50.076;8.660;2022-12-18T09:12:40;-5.60;1.00
3778;DHT22;1904;50.076;8.660;2022-12-18T09:15:09;-5.50;1.00
3778;DHT22;1904;50.076;8.660;2022-12-18T09:17:44;-5.40;1.00
3778;DHT22;1904;50.076;8.660;2022-12-18T09:20:15;-5.30;1.00
3778;DHT22;1904;50.076;8.660;2022-12-18T09:22:45;-5.10;1.00
3778;DHT22;1904;50.076;8.660;2022-12-18T09:25:11;-5.00;1.00
3778;DHT22;1904;50.076;8.660;2022-12-18T09:27:47;-5.00;1.00
3778;DHT22;1904;50.076;8.660;2022-12-18T09:30:15;-4.90;1.00
3778;DHT22;1904;50.076;8.660;2022-12-18T09:32:44;-4.80;1.00
3778;DHT22;1904;50.076;8.660;2022-12-18T09:35:15;-4.70;1.00
3778;DHT22;1904;50.076;8.660;2022-12-18T09:37:40;-4.60;1.00
3778;DHT22;1904;50.076;8.660;2022-12-18T09:40:20;-4.50;1.00
3778;DHT22;1904;50.076;8.660;2022-12-18T09:42:56;-4.50;1.00
3778;DHT22;1904;50.076;8.660;2022-12-18T09:45:27;-4.40;1.00
3778;DHT22;1904;50.076;8.660;2022-12-18T09:48:04;-4.30;1.00
3778;DHT22;1904;50.076;8.660;2022-12-18T09:50:37;-4.20;1.00
3778;DHT22;1904;50.076;8.660;2022-12-18T09:53:10;-4.00;1.00
3778;DHT22;1904;50.076;8.660;2022-12-18T09:55:46;-3.90;1.00
3778;DHT22;1904;50.076;8.660;2022-12-18T10:01:20;-3.70;1.00
3778;DHT22;1904;50.076;8.660;2022-12-18T10:04:04;-3.70;1.00
3778;DHT22;1904;50.076;8.660;2022-12-18T10:09:59;-3.70;1.00
3778;DHT22;1904;50.076;8.660;2022-12-18T10:12:35;-3.70;1.00
3778;DHT22;1904;50.076;8.660;2022-12-18T10:26:15;-3.60;1.00
3778;DHT22;1904;50.076;8.660;2022-12-18T10:28:45;-3.50;1.00
3778;DHT22;1904;50.076;8.660;2022-12-18T10:31:45;-3.50;1.00
3778;DHT22;1904;50.076;8.660;2022-12-18T10:34:15;-3.40;1.00
3778;DHT22;1904;50.076;8.660;2022-12-18T10:36:45;-3.30;1.00
3778;DHT22;1904;50.076;8.660;2022-12-18T10:39:23;-3.30;1.00
3778;DHT22;1904;50.076;8.660;2022-12-18T10:41:51;-3.20;1.00
3778;DHT22;1904;50.076;8.660;2022-12-18T10:44:22;-3.30;1.00
3778;DHT22;1904;50.076;8.660;2022-12-18T10:47:03;-3.20;1.00
3778;DHT22;1904;50.076;8.660;2022-12-18T10:49:33;-3.30;1.00
3778;DHT22;1904;50.076;8.660;2022-12-18T10:52:19;-3.20;1.00
3778;DHT22;1904;50.076;8.660;2022-12-18T10:54:56;-3.10;1.00
3778;DHT22;1904;50.076;8.660;2022-12-18T10:57:35;-2.90;1.00
3778;DHT22;1904;50.076;8.660;2022-12-18T11:02:51;-3.10;1.00
3778;DHT22;1904;50.076;8.660;2022-12-18T11:05:29;-3.00;1.00
3778;DHT22;1904;50.076;8.660;2022-12-18T11:07:56;-3.00;1.00
3778;DHT22;1904;50.076;8.660;2022-12-18T11:10:44;-2.90;1.00
3778;DHT22;1904;50.076;8.660;2022-12-18T11:13:49;-2.80;1.00
3778;DHT22;1904;50.076;8.660;2022-12-18T11:16:21;-2.80;1.00
3778;DHT22;1904;50.076;8.660;2022-12-18T11:18:46;-2.80;1.00
3778;DHT22;1904;50.076;8.660;2022-12-18T11:21:15;-2.90;1.00
3778;DHT22;1904;50.076;8.660;2022-12-18T11:23:50;-2.80;1.00
3778;DHT22;1904;50.076;8.660;2022-12-18T11:26:21;-2.60;1.00
3778;DHT22;1904;50.076;8.660;2022-12-18T11:29:24;-2.40;1.00
3778;DHT22;1904;50.076;8.660;2022-12-18T11:35:27;-2.30;1.00
3778;DHT22;1904;50.076;8.660;2022-12-18T11:38:10;-2.60;1.00
3778;DHT22;1904;50.076;8.660;2022-12-18T11:40:42;-2.70;1.00
3778;DHT22;1904;50.076;8.660;2022-12-18T11:43:18;-2.70;1.00
3778;DHT22;1904;50.076;8.660;2022-12-18T11:45:56;-2.60;1.00
3778;DHT22;1904;50.076;8.660;2022-12-18T11:48:33;-2.50;1.00
3778;DHT22;1904;50.076;8.660;2022-12-18T11:51:05;-2.60;1.00
3778;DHT22;1904;50.076;8.660;2022-12-18T11:53:35;-2.60;1.00
3778;DHT22;1904;50.076;8.660;2022-12-18T12:12:36;-1.90;1.00
3778;DHT22;1904;50.076;8.660;2022-12-18T12:21:26;-1.30;1.00
3778;DHT22;1904;50.076;8.660;2022-12-18T12:32:49;-1.40;1.00
3778;DHT22;1904;50.076;8.660;2022-12-18T12:38:31;-1.40;1.00
3778;DHT22;1904;50.076;8.660;2022-12-18T12:47:58;-1.60;1.00
3778;DHT22;1904;50.076;8.660;2022-12-18T13:00:21;-1.60;1.00
3778;DHT22;1904;50.076;8.660;2022-12-18T13:12:33;-1.50;1.00
3778;DHT22;1904;50.076;8.660;2022-12-18T13:15:40;-1.40;1.00
3778;DHT22;1904;50.076;8.660;2022-12-18T13:21:17;-1.40;1.00
3778;DHT22;1904;50.076;8.660;2022-12-18T13:24:15;-1.40;1.00
3778;DHT22;1904;50.076;8.660;2022-12-18T13:26:45;-1.40;1.00
3778;DHT22;1904;50.076;8.660;2022-12-18T13:32:29;-1.30;1.00
3778;DHT22;1904;50.076;8.660;2022-12-18T13:37:53;-1.30;1.00
3778;DHT22;1904;50.076;8.660;2022-12-18T13:51:22;-1.20;1.00
3778;DHT22;1904;50.076;8.660;2022-12-18T13:54:00;-1.30;1.00
3778;DHT22;1904;50.076;8.660;2022-12-18T13:56:51;-1.30;1.00
3778;DHT22;1904;50.076;8.660;2022-12-18T14:02:38;-1.40;1.00
3778;DHT22;1904;50.076;8.660;2022-12-18T14:12:03;-1.50;1.00
3778;DHT22;1904;50.076;8.660;2022-12-18T14:14:58;-1.50;1.00
3778;DHT22;1904;50.076;8.660;2022-12-18T14:24:16;-1.60;1.00
3778;DHT22;1904;50.076;8.660;2022-12-18T14:26:51;-1.60;1.00
3778;DHT22;1904;50.076;8.660;2022-12-18T14:29:30;-1.60;1.00
3778;DHT22;1904;50.076;8.660;2022-12-18T14:35:18;-1.60;1.00
3778;DHT22;1904;50.076;8.660;2022-12-18T14:40:57;-1.70;1.00
3778;DHT22;1904;50.076;8.660;2022-12-18T14:46:37;-1.80;1.00
3778;DHT22;1904;50.076;8.660;2022-12-18T14:52:00;-1.90;1.00
3778;DHT22;1904;50.076;8.660;2022-12-18T14:54:35;-2.00;1.00
3778;DHT22;1904;50.076;8.660;2022-12-18T14:57:21;-1.90;1.00
3778;DHT22;1904;50.076;8.660;2022-12-18T15:00:18;-2.00;1.00
3778;DHT22;1904;50.076;8.660;2022-12-18T15:02:55;-2.00;1.00
3778;DHT22;1904;50.076;8.660;2022-12-18T15:05:29;-2.00;1.00
3778;DHT22;1904;50.076;8.660;2022-12-18T15:11:43;-2.10;1.00
3778;DHT22;1904;50.076;8.660;2022-12-18T15:14:40;-2.10;1.00
3778;DHT22;1904;50.076;8.660;2022-12-18T15:17:39;-2.20;1.00
3778;DHT22;1904;50.076;8.660;2022-12-18T15:20:21;-2.20;1.00
3778;DHT22;1904;50.076;8.660;2022-12-18T15:22:57;-2.30;1.00
3778;DHT22;1904;50.076;8.660;2022-12-18T15:25:39;-2.30;1.00
3778;DHT22;1904;50.076;8.660;2022-12-18T15:31:22;-2.40;1.00
3778;DHT22;1904;50.076;8.660;2022-12-18T15:36:57;-2.60;1.00
3778;DHT22;1904;50.076;8.660;2022-12-18T15:39:33;-2.60;1.00
3778;DHT22;1904;50.076;8.660;2022-12-18T15:42:21;-2.60;1.00
3778;DHT22;1904;50.076;8.660;2022-12-18T15:45:12;-2.70;1.00
3778;DHT22;1904;50.076;8.660;2022-12-18T15:47:45;-2.70;1.00
3778;DHT22;1904;50.076;8.660;2022-12-18T15:50:28;-2.80;1.00
3778;DHT22;1904;50.076;8.660;2022-12-18T15:52:54;-2.80;1.00
3778;DHT22;1904;50.076;8.660;2022-12-18T15:55:39;-2.80;1.00
3778;DHT22;1904;50.076;8.660;2022-12-18T15:58:51;-2.80;1.00
3778;DHT22;1904;50.076;8.660;2022-12-18T16:01:33;-2.90;1.00
3778;DHT22;1904;50.076;8.660;2022-12-18T16:04:12;-2.90;1.00
3778;DHT22;1904;50.076;8.660;2022-12-18T16:06:45;-2.90;1.00
3778;DHT22;1904;50.076;8.660;2022-12-18T16:09:21;-3.00;1.00
3778;DHT22;1904;50.076;8.660;2022-12-18T16:12:00;-3.00;1.00
3778;DHT22;1904;50.076;8.660;2022-12-18T16:14:30;-3.00;1.00
3778;DHT22;1904;50.076;8.660;2022-12-18T16:23:45;-3.00;1.00
3778;DHT22;1904;50.076;8.660;2022-12-18T16:26:27;-3.00;1.00
3778;DHT22;1904;50.076;8.660;2022-12-18T16:29:03;-3.00;1.00
3778;DHT22;1904;50.076;8.660;2022-12-18T16:31:51;-3.00;1.00
3778;DHT22;1904;50.076;8.660;2022-12-18T16:34:24;-3.00;1.00
3778;DHT22;1904;50.076;8.660;2022-12-18T16:37:27;-3.00;1.00
3778;DHT22;1904;50.076;8.660;2022-12-18T16:40:27;-3.00;1.00
3778;DHT22;1904;50.076;8.660;2022-12-18T16:42:57;-3.00;1.00
3778;DHT22;1904;50.076;8.660;2022-12-18T16:45:27;-3.00;1.00
3778;DHT22;1904;50.076;8.660;2022-12-18T16:48:03;-3.00;1.00
3778;DHT22;1904;50.076;8.660;2022-12-18T16:50:33;-3.10;1.00
3778;DHT22;1904;50.076;8.660;2022-12-18T16:52:59;-3.00;1.00
3778;DHT22;1904;50.076;8.660;2022-12-18T16:55:39;-3.00;1.00
3778;DHT22;1904;50.076;8.660;2022-12-18T17:01:11;-3.00;1.00
3778;DHT22;1904;50.076;8.660;2022-12-18T17:03:59;-3.00;1.00
3778;DHT22;1904;50.076;8.660;2022-12-18T17:06:26;-3.00;1.00
3778;DHT22;1904;50.076;8.660;2022-12-18T17:08:59;-3.00;1.00
3778;DHT22;1904;50.076;8.660;2022-12-18T17:11:26;-3.00;1.00
3778;DHT22;1904;50.076;8.660;2022-12-18T17:13:57;-3.00;1.00
3778;DHT22;1904;50.076;8.660;2022-12-18T17:16:28;-3.00;1.00
3778;DHT22;1904;50.076;8.660;2022-12-18T17:18:54;-3.00;1.00
3778;DHT22;1904;50.076;8.660;2022-12-18T17:25:15;-3.00;1.00
3778;DHT22;1904;50.076;8.660;2022-12-18T17:27:57;-3.00;1.00
3778;DHT22;1904;50.076;8.660;2022-12-18T17:30:23;-3.00;1.00
3778;DHT22;1904;50.076;8.660;2022-12-18T17:36:27;-3.00;1.00
3778;DHT22;1904;50.076;8.660;2022-12-18T17:38:58;-3.00;1.00
3778;DHT22;1904;50.076;8.660;2022-12-18T17:41:45;-3.00;1.00
3778;DHT22;1904;50.076;8.660;2022-12-18T17:44:33;-2.90;1.00
3778;DHT22;1904;50.076;8.660;2022-12-18T17:50:20;-2.80;1.00
3778;DHT22;1904;50.076;8.660;2022-12-18T17:56:11;-2.80;1.00
3778;DHT22;1904;50.076;8.660;2022-12-18T17:58:51;-2.80;1.00
3778;DHT22;1904;50.076;8.660;2022-12-18T18:11:23;-2.70;1.00
3778;DHT22;1904;50.076;8.660;2022-12-18T18:17:29;-2.70;1.00
3778;DHT22;1904;50.076;8.660;2022-12-18T18:19:55;-2.70;1.00
3778;DHT22;1904;50.076;8.660;2022-12-18T18:22:21;-2.60;1.00
3778;DHT22;1904;50.076;8.660;2022-12-18T18:28:03;-2.60;1.00
3778;DHT22;1904;50.076;8.660;2022-12-18T18:36:57;-2.40;1.00
3778;DHT22;1904;50.076;8.660;2022-12-18T18:43:09;-2.40;1.00
3778;DHT22;1904;50.076;8.660;2022-12-18T18:45:39;-2.40;1.00
3778;DHT22;1904;50.076;8.660;2022-12-18T18:48:05;-2.40;1.00
3778;DHT22;1904;50.076;8.660;2022-12-18T18:50:31;-2.40;1.00
3778;DHT22;1904;50.076;8.660;2022-12-18T18:52:57;-2.30;1.00
3778;DHT22;1904;50.076;8.660;2022-12-18T18:55:23;-2.30;1.00
3778;DHT22;1904;50.076;8.660;2022-12-18T18:57:51;-2.40;1.00
3778;DHT22;1904;50.076;8.660;2022-12-18T19:03:51;-2.30;1.00
3778;DHT22;1904;50.076;8.660;2022-12-18T19:06:51;-2.30;1.00
3778;DHT22;1904;50.076;8.660;2022-12-18T19:12:45;-2.30;1.00
3778;DHT22;1904;50.076;8.660;2022-12-18T19:18:52;-2.40;1.00
3778;DHT22;1904;50.076;8.660;2022-12-18T19:30:51;-2.40;1.00
3778;DHT22;1904;50.076;8.660;2022-12-18T19:33:21;-2.30;1.00
3778;DHT22;1904;50.076;8.660;2022-12-18T19:42:32;-2.20;1.00
3778;DHT22;1904;50.076;8.660;2022-12-18T19:45:03;-2.20;1.00
3778;DHT22;1904;50.076;8.660;2022-12-18T19:47:45;-2.20;1.00
3778;DHT22;1904;50.076;8.660;2022-12-18T19:50:27;-2.20;1.00
3778;DHT22;1904;50.076;8.660;2022-12-18T19:52:53;-2.20;1.00
3778;DHT22;1904;50.076;8.660;2022-12-18T19:55:21;-2.10;1.00
3778;DHT22;1904;50.076;8.660;2022-12-18T19:57:47;-2.10;1.00
3778;DHT22;1904;50.076;8.660;2022-12-18T20:00:13;-2.00;1.00
3778;DHT22;1904;50.076;8.660;2022-12-18T20:08:53;-2.00;1.00
3778;DHT22;1904;50.076;8.660;2022-12-18T20:11:45;-1.90;1.00
3778;DHT22;1904;50.076;8.660;2022-12-18T20:14:12;-1.90;1.00
3778;DHT22;1904;50.076;8.660;2022-12-18T20:16:40;-1.90;1.00
3778;DHT22;1904;50.076;8.660;2022-12-18T20:19:11;-1.90;1.00
3778;DHT22;1904;50.076;8.660;2022-12-18T20:21:45;-1.90;1.00
3778;DHT22;1904;50.076;8.660;2022-12-18T20:24:21;-1.90;1.00
3778;DHT22;1904;50.076;8.660;2022-12-18T20:26:51;-1.90;1.00
3778;DHT22;1904;50.076;8.660;2022-12-18T20:36:27;-1.80;1.00
3778;DHT22;1904;50.076;8.660;2022-12-18T20:45:36;-1.80;1.00
3778;DHT22;1904;50.076;8.660;2022-12-18T20:57:57;-1.90;1.00
3778;DHT22;1904;50.076;8.660;2022-12-18T21:07:07;-1.70;1.00
3778;DHT22;1904;50.076;8.660;2022-12-18T21:12:55;-1.50;1.00
3778;DHT22;1904;50.076;8.660;2022-12-18T21:15:27;-1.50;1.00
3778;DHT22;1904;50.076;8.660;2022-12-18T21:18:09;-1.40;1.00
3778;DHT22;1904;50.076;8.660;2022-12-18T21:20:51;-1.40;1.00
3778;DHT22;1904;50.076;8.660;2022-12-18T21:23:22;-1.40;1.00
3778;DHT22;1904;50.076;8.660;2022-12-18T21:29:18;-1.30;1.00
3778;DHT22;1904;50.076;8.660;2022-12-18T21:31:52;-1.20;1.00
3778;DHT22;1904;50.076;8.660;2022-12-18T21:34:25;-1.10;1.00
3778;DHT22;1904;50.076;8.660;2022-12-18T21:36:52;-1.10;1.00
3778;DHT22;1904;50.076;8.660;2022-12-18T21:39:33;-1.10;1.00
3778;DHT22;1904;50.076;8.660;2022-12-18T21:41:59;-1.00;1.00
3778;DHT22;1904;50.076;8.660;2022-12-18T21:44:57;-1.00;1.00
3778;DHT22;1904;50.076;8.660;2022-12-18T21:50:45;-0.90;1.00
3778;DHT22;1904;50.076;8.660;2022-12-18T22:06:11;-0.90;1.00
3778;DHT22;1904;50.076;8.660;2022-12-18T22:08:57;-0.90;1.00
3778;DHT22;1904;50.076;8.660;2022-12-18T22:11:52;-0.90;1.00
3778;DHT22;1904;50.076;8.660;2022-12-18T22:18:03;-0.80;1.00
3778;DHT22;1904;50.076;8.660;2022-12-18T22:20:29;-0.90;1.00
3778;DHT22;1904;50.076;8.660;2022-12-18T22:22:55;-0.80;1.00
3778;DHT22;1904;50.076;8.660;2022-12-18T22:25:27;-0.80;1.00
3778;DHT22;1904;50.076;8.660;2022-12-18T22:28:09;-0.90;1.00
3778;DHT22;1904;50.076;8.660;2022-12-18T22:31:15;-0.90;1.00
3778;DHT22;1904;50.076;8.660;2022-12-18T22:40:24;-0.80;1.00
3778;DHT22;1904;50.076;8.660;2022-12-18T22:46:16;-0.80;1.00
3778;DHT22;1904;50.076;8.660;2022-12-18T22:58:26;-0.80;1.00
3778;DHT22;1904;50.076;8.660;2022-12-18T23:01:01;-0.80;1.00
3778;DHT22;1904;50.076;8.660;2022-12-18T23:03:34;-0.80;1.00
3778;DHT22;1904;50.076;8.660;2022-12-18T23:06:04;-0.70;1.00
3778;DHT22;1904;50.076;8.660;2022-12-18T23:08:30;-0.70;1.00
3778;DHT22;1904;50.076;8.660;2022-12-18T23:10:56;-0.70;1.00
3778;DHT22;1904;50.076;8.660;2022-12-18T23:13:22;-0.70;1.00
3778;DHT22;1904;50.076;8.660;2022-12-18T23:16:10;-0.60;1.00
3778;DHT22;1904;50.076;8.660;2022-12-18T23:18:40;-0.60;1.00
3778;DHT22;1904;50.076;8.660;2022-12-18T23:21:22;-0.60;1.00
3778;DHT22;1904;50.076;8.660;2022-12-18T23:23:48;-0.60;1.00
3778;DHT22;1904;50.076;8.660;2022-12-18T23:26:17;-0.50;1.00
3778;DHT22;1904;50.076;8.660;2022-12-18T23:28:46;-0.50;1.00
3778;DHT22;1904;50.076;8.660;2022-12-18T23:31:30;-0.50;1.00
3778;DHT22;1904;50.076;8.660;2022-12-18T23:34:21;-0.40;1.00
3778;DHT22;1904;50.076;8.660;2022-12-18T23:50:14;-0.40;1.00
3778;DHT22;1904;50.076;8.660;2022-12-18T23:52:40;-0.30;1.00
3778;DHT22;1904;50.076;8.660;2022-12-18T23:58:33;-0.20;1.00
